Denhawken, Texas
Current Conditions -  °F | °C
As of 10:58 AM on Wednesday 26 Nov 2014 (Local Time) from KRND Reporting Station
Clear Clear  
Wind Chill: 62°   Ceiling: Unl
Heat Index: 62°   Visibility: 10mi
Dew Point: 32°   Wind: 14mph
Humidity: 32%   Direction: 220°SW
Pressure: 30.24"   Gusts: NA
Location:  29.2327°N, 97.8937°W
Report Text: KRND 261658Z AUTO 22012KT 10SM CLR 17/00 A3024 RMK AO2 SLP239 T01671001
Loading
Personal Weather Stations






























Interactive Weather Map New forecast layout! Learn more

10-Day Weather Forecast

Advertisements
Track Severe Weather on mobile